UAKK Airport Information

Runway Information
Runway 05 Length 10831 ft width 197 ft
Elevation 1765 ft Threshold 0 ft Heading 58
Runway 23 Length 10831 ft Width 197 ft
Elevation 1752 ft Threshold 0 ft Heading 238
Airport Frequencies
Type APP Name APP Frequency 122 MHZ
Type TWR Name TWR Frequency 118.3 MHZ
Airport Navaids
Type NDB Name Karaganda Frequency 299 KHZ
Type VOR-DME Name Karaganda Frequency 113400 KHZ
Type NDB Name Karaganda Frequency 299 KHZ
Airport Weather Information & NOTAM
ADDS - METARS form results

(0807 UTC 24 July 2021)
Data provider http://aviationweather.gov/metar/data/
 
METAR text: UAKK 240800Z 25004MPS CAVOK 32/09 Q1007 R23/0///70 NOSIG RMK QFE709/0946
Conditions at: UAKK (KARAGANDA , KZ) observed 0800 UTC 24 July 2021
Temperature: 32.0°C (90°F)
Dewpoint: 9.0°C (48°F) [RH = 24%]
Pressure (altimeter): 29.73 inches Hg (1007.0 mb)
Winds: from the WSW (250 degrees) at 9 MPH (8 knots; 4.1 m/s)
Visibility: 6 or more miles (10+ km)
Ceiling: ceiling and visibility are OK
Clouds: unknown
Weather: no significant weather observed at this time

METAR text: UAKK 240730Z 30003MPS CAVOK 32/08 Q1008 R23/0///70 NOSIG RMK QFE709/0946
Conditions at: UAKK (KARAGANDA , KZ) observed 0730 UTC 24 July 2021
Temperature: 32.0°C (90°F)
Dewpoint: 8.0°C (46°F) [RH = 23%]
Pressure (altimeter): 29.76 inches Hg (1008.0 mb)
Winds: from the WNW (300 degrees) at 7 MPH (6 knots; 3.1 m/s)
Visibility: 6 or more miles (10+ km)
Ceiling: ceiling and visibility are OK
Clouds: unknown
Weather: no significant weather observed at this time

Forecast for: UAKK (KARAGANDA , KZ)
Text: TAF UAKK 240500Z 2406/2506 VRB02MPS CAVOK TX33/2411Z TN12/2423Z
Forecast period: 0600 UTC 24 July 2021 to 0600 UTC 25 July 2021
Forecast type: FROM: standard forecast or significant change
Winds: variable direction winds at 5 MPH (4 knots; 2.1 m/s)
Visibility: 6 or more miles (10+ km)
Ceiling: unknown
Clouds: missing
Weather: no significant weather forecast for this period